McAlester, OK

7:47 PM CDT on September 21, 2014 (GMT -0500)
Atoka Municipal | Change Station
CLOSE
Current Station
Airport
Location: Atoka,
Elevation: 591 ft
Nearby Weather Stations

Elev 591 ft 34.40 °N, 96.15 °W | Updated 12 minutes ago

Clear
Clear
79 °F
Feels Like 79 °F
N
7
Wind Variable Wind from NNE

Today
High -- | Low -- °F
--% Chance of Precip.
Yesterday
High -- | Low -- °F
Precip. -- in
7:10 AM 7:21 PM
Waning Crescent, 5% visible
Pressure 30.09 in
Visibility 10.0 miles
Clouds Clear
Dew Point 64 °F
Humidity 61%
Rainfall 0.00 in
Snow Depth Not available.
UV 0 out of 12
Pollen 10.20 out of 12
Air Quality Not available.
Flu Activity Not available.
METAR KAQR 220035Z AUTO 03006KT 10SM CLR 26/18 A3009 RMK AO2

More Conditions Fewer Conditions

Pressure 30.09 in
Visibility 10.0 miles
Clouds Clear
Dew Point 64 °F
Humidity 61%
Rainfall 0.00 in
Snow Depth Not available.
UV 0 out of 12
Pollen 10.20 out of 12
Air Quality Not available.
Flu Activity Not available.
METAR KAQR 220035Z AUTO 03006KT 10SM CLR 26/18 A3009 RMK AO2

More Conditions Fewer Conditions

10-Day Weather Forecast

Almanac

Astronomy

Sep. 21, 2014 Rise Set
Actual Time 7:10 AM CDT 7:21 PM CDT
Civil Twilight 6:45 AM CDT 7:46 PM CDT
Nautical Twilight 6:15 AM CDT 8:16 PM CDT
Astronomical Twilight 5:45 AM CDT 8:45 PM CDT
Moon 4:49 AM CDT (9/21) 5:54 PM CDT (9/21)
Length of Visible Light 13h 01m
Length of Day
12h 10m
Tomorrow will be 2m 10s shorter.
Waning Crescent, 5% of the Moon is Illuminated
Today
Waning Crescent
Sep 24
New
Oct 1
First Quarter
Oct 8
Full
Oct 15
Last Quarter

Today's Extremes

State Highs State Lows

Community

WunderPhotos

Upload Photos

1,755,316 photos uploaded!

WunderBlogs® & News

Nearby

Snow Depth

Station Depth Elevation
No new snow has been reported.

Earthquake Activity

City Distance Mag. Time & Date
Medford, Oklahoma 168 miles 3.2 2:10 AM CDT
2014-09-20
Luther, Oklahoma 88 miles 2.7 4:47 PM CDT
2014-09-19
Guthrie, Oklahoma 109 miles 3.6 12:23 PM CDT
2014-09-19
Jones, Oklahoma 93 miles 2.8 1:13 AM CDT
2014-09-19
Minimum magnitude displayed is 2.5.

Coastal Water Temperatures

Place Temperature
No Stations Reporting

Nearby Weather Stations